createdAt,value
2023-03-11T00:00:32.278Z,36.80
2023-03-11T00:03:24.488Z,42.80
2023-03-11T00:05:53.316Z,47.20
2023-03-11T00:08:22.671Z,60.00
2023-03-11T00:10:55.417Z,46.50
2023-03-11T00:13:23.439Z,47.90
2023-03-11T00:15:55.995Z,43.70
2023-03-11T00:18:28.096Z,38.00
2023-03-11T00:20:56.522Z,46.10
2023-03-11T00:23:24.690Z,38.40
2023-03-11T00:25:52.815Z,42.90
2023-03-11T00:28:26.225Z,48.70
2023-03-11T00:30:54.409Z,37.20
2023-03-11T00:33:22.053Z,34.80
2023-03-11T00:35:50.416Z,36.00
2023-03-11T00:38:18.315Z,37.70
2023-03-11T00:40:46.992Z,33.40
2023-03-11T00:43:15.108Z,32.90
2023-03-11T00:45:42.882Z,37.20
2023-03-11T00:48:11.694Z,33.50
2023-03-11T00:50:40.269Z,33.10
2023-03-11T00:53:07.930Z,37.80
2023-03-11T00:55:36.229Z,33.90
2023-03-11T00:58:14.262Z,31.30
2023-03-11T01:00:49.036Z,31.80
2023-03-11T01:03:16.763Z,27.70
2023-03-11T01:05:46.088Z,35.50
2023-03-11T01:08:13.753Z,28.80
2023-03-11T01:10:45.360Z,29.20
2023-03-11T01:13:13.516Z,32.30
2023-03-11T01:15:41.313Z,31.40
2023-03-11T01:18:09.071Z,27.10
2023-03-11T01:20:38.109Z,33.60
2023-03-11T01:23:06.908Z,32.30
2023-03-11T01:25:34.997Z,32.60
2023-03-11T01:28:02.777Z,36.00
2023-03-11T01:30:31.414Z,31.70
2023-03-11T01:32:59.148Z,26.70
2023-03-11T01:35:28.074Z,27.30
2023-03-11T01:37:56.293Z,25.80
2023-03-11T01:40:31.866Z,30.00
2023-03-11T01:43:03.939Z,30.30
2023-03-11T01:45:50.392Z,34.10
2023-03-11T01:48:20.571Z,28.10
2023-03-11T01:50:49.941Z,27.60
2023-03-11T01:53:17.865Z,32.00
2023-03-11T01:55:46.797Z,34.20
2023-03-11T01:58:25.509Z,32.10
2023-03-11T02:00:59.104Z,29.50
2023-03-11T02:03:31.825Z,31.90
2023-03-11T02:06:01.191Z,31.60
2023-03-11T02:08:30.200Z,25.20
2023-03-11T02:10:58.220Z,30.20
2023-03-11T02:13:26.079Z,33.30
2023-03-11T02:15:53.857Z,36.10
2023-03-11T02:18:22.341Z,30.00
2023-03-11T02:21:09.478Z,26.10
2023-03-11T02:24:00.223Z,32.90
2023-03-11T02:26:37.173Z,44.80
2023-03-11T02:29:06.412Z,57.80
2023-03-11T02:31:35.180Z,65.00
2023-03-11T02:34:03.900Z,49.70
2023-03-11T02:36:35.417Z,61.80
2023-03-11T02:39:04.190Z,53.00
2023-03-11T02:41:35.081Z,84.60
2023-03-11T02:44:04.578Z,92.30
2023-03-11T02:46:41.470Z,73.70
2023-03-11T02:49:09.996Z,88.50
2023-03-11T02:51:37.667Z,63.00
2023-03-11T02:54:05.962Z,91.70
2023-03-11T02:56:34.295Z,92.30
2023-03-11T02:59:01.981Z,63.90
2023-03-11T03:01:31.391Z,75.50
2023-03-11T03:03:59.778Z,103.20
2023-03-11T03:06:28.736Z,62.20
2023-03-11T03:08:56.554Z,63.80
2023-03-11T03:11:24.569Z,81.00
2023-03-11T03:13:52.335Z,69.40
2023-03-11T03:16:24.211Z,80.80
2023-03-11T03:18:52.739Z,75.80
2023-03-11T03:21:20.465Z,63.50
2023-03-11T03:23:48.311Z,72.00
2023-03-11T03:26:16.916Z,75.20
2023-03-11T03:28:46.625Z,67.70
2023-03-11T03:31:14.579Z,57.10
2023-03-11T03:33:43.074Z,92.90
2023-03-11T03:36:16.589Z,58.20
2023-03-11T03:38:48.576Z,56.40
2023-03-11T03:41:17.250Z,60.00
2023-03-11T03:43:46.093Z,65.00
2023-03-11T03:46:14.209Z,64.90
2023-03-11T03:48:45.236Z,47.70
2023-03-11T03:51:13.789Z,66.40
2023-03-11T03:53:48.572Z,57.90
2023-03-11T03:56:17.333Z,39.70
2023-03-11T03:58:45.266Z,45.50
2023-03-11T04:01:13.861Z,53.00
2023-03-11T04:03:41.869Z,38.50
2023-03-11T04:06:17.940Z,89.70
2023-03-11T04:08:46.172Z,37.50
2023-03-11T04:11:14.381Z,42.10
2023-03-11T04:13:44.793Z,46.30
2023-03-11T04:16:16.774Z,45.60
2023-03-11T04:18:49.131Z,46.40
2023-03-11T04:21:18.062Z,43.20
2023-03-11T04:23:46.617Z,39.90
2023-03-11T04:26:15.783Z,48.00
2023-03-11T04:28:43.540Z,41.80
2023-03-11T04:31:12.669Z,47.50
2023-03-11T04:33:40.561Z,49.40
2023-03-11T04:36:10.090Z,40.70
2023-03-11T04:38:38.493Z,41.00
2023-03-11T04:41:07.542Z,38.50
2023-03-11T04:43:35.926Z,40.20
2023-03-11T04:46:08.032Z,40.00
2023-03-11T04:48:42.162Z,30.60
2023-03-11T04:51:10.548Z,29.00
2023-03-11T04:53:38.532Z,29.20
2023-03-11T04:56:06.764Z,32.20
2023-03-11T04:58:35.030Z,37.20
2023-03-11T05:01:02.792Z,33.00
2023-03-11T05:03:30.730Z,27.50
2023-03-11T05:06:00.362Z,24.10
2023-03-11T05:08:28.217Z,25.40
2023-03-11T05:10:55.960Z,21.70
2023-03-11T05:13:24.103Z,16.30
2023-03-11T05:15:52.895Z,10.90
2023-03-11T05:18:21.706Z,11.30
2023-03-11T05:20:49.821Z,8.80
2023-03-11T05:23:19.013Z,9.40
2023-03-11T05:25:46.791Z,8.70
2023-03-11T05:28:14.785Z,8.10
2023-03-11T05:30:47.697Z,7.20
2023-03-11T05:33:15.781Z,6.80
2023-03-11T05:35:43.873Z,5.90
2023-03-11T05:38:25.629Z,7.20
2023-03-11T05:41:03.657Z,5.30
2023-03-11T05:43:32.048Z,7.90
2023-03-11T05:46:00.375Z,7.20
2023-03-11T05:48:28.414Z,8.00
2023-03-11T05:50:56.720Z,9.50
2023-03-11T05:53:25.386Z,9.20
2023-03-11T05:55:57.772Z,9.00
2023-03-11T05:58:27.368Z,8.40
2023-03-11T06:00:55.141Z,8.30
2023-03-11T06:03:23.143Z,9.60
2023-03-11T06:05:51.044Z,8.30
2023-03-11T06:08:19.458Z,6.20
2023-03-11T06:10:49.080Z,7.20
2023-03-11T06:13:17.950Z,7.40
2023-03-11T06:15:52.838Z,8.80
2023-03-11T06:18:21.351Z,6.80
2023-03-11T06:20:49.446Z,8.80
2023-03-11T06:23:17.606Z,9.20
2023-03-11T06:25:45.528Z,9.10
2023-03-11T06:28:13.341Z,8.10
2023-03-11T06:30:44.567Z,10.10
2023-03-11T06:33:15.098Z,7.70
2023-03-11T06:35:43.279Z,8.80
2023-03-11T06:38:11.027Z,7.60
2023-03-11T06:40:38.884Z,8.40
2023-03-11T06:43:06.903Z,6.80
2023-03-11T06:45:43.059Z,7.90
2023-03-11T06:48:11.220Z,6.60
2023-03-11T06:50:41.462Z,7.00
2023-03-11T06:53:09.615Z,6.40
2023-03-11T06:55:37.966Z,5.40
2023-03-11T06:58:06.105Z,6.00
2023-03-11T07:00:34.593Z,8.50
2023-03-11T07:03:03.899Z,7.10
2023-03-11T07:05:35.254Z,7.70
2023-03-11T07:08:06.966Z,7.90
2023-03-11T07:10:35.727Z,5.90
2023-03-11T07:13:04.658Z,6.10
2023-03-11T07:15:34.734Z,7.60
2023-03-11T07:18:02.657Z,5.50
2023-03-11T07:20:30.881Z,6.20
2023-03-11T07:22:58.739Z,6.10
2023-03-11T07:25:26.586Z,7.60
2023-03-11T07:27:54.556Z,9.10
2023-03-11T07:30:22.390Z,4.20
2023-03-11T07:32:56.527Z,7.90
2023-03-11T07:35:24.630Z,6.00
2023-03-11T07:37:52.507Z,5.70
2023-03-11T07:40:20.414Z,12.40
2023-03-11T07:42:48.302Z,4.60
2023-03-11T07:45:16.757Z,5.60
2023-03-11T07:47:44.706Z,6.70
2023-03-11T07:50:12.616Z,4.60
2023-03-11T07:52:40.400Z,6.90
2023-03-11T07:55:08.372Z,8.60
2023-03-11T07:57:36.314Z,6.70
2023-03-11T08:00:04.387Z,6.40
2023-03-11T08:02:39.842Z,6.60
2023-03-11T08:05:07.992Z,7.70
2023-03-11T08:07:35.987Z,4.90
2023-03-11T08:10:04.577Z,7.50
2023-03-11T08:12:33.649Z,5.80
2023-03-11T08:15:01.492Z,5.60
2023-03-11T08:17:29.601Z,7.30
2023-03-11T08:19:57.588Z,5.20
2023-03-11T08:22:25.640Z,7.90
2023-03-11T08:24:53.812Z,9.50
2023-03-11T08:27:22.153Z,5.50
2023-03-11T08:29:49.966Z,8.60
2023-03-11T08:32:38.455Z,7.70
2023-03-11T08:35:20.124Z,6.90
2023-03-11T08:37:48.360Z,7.10
2023-03-11T08:40:23.093Z,6.40
2023-03-11T08:42:51.043Z,6.20
2023-03-11T08:45:19.198Z,6.40
2023-03-11T08:47:47.196Z,7.20
2023-03-11T08:50:16.809Z,7.70
2023-03-11T08:52:45.669Z,9.50
2023-03-11T08:55:15.202Z,9.70
2023-03-11T08:57:43.247Z,9.40
2023-03-11T09:00:13.616Z,8.00
2023-03-11T09:02:41.820Z,8.00
2023-03-11T09:05:10.765Z,6.60
2023-03-11T09:07:38.711Z,10.50
2023-03-11T09:10:27.373Z,7.70
2023-03-11T09:12:59.244Z,7.60
2023-03-11T09:15:27.412Z,12.30
2023-03-11T09:17:55.982Z,11.70
2023-03-11T09:20:24.517Z,11.80
2023-03-11T09:22:52.312Z,14.00
2023-03-11T09:25:20.308Z,9.70
2023-03-11T09:27:48.380Z,15.20
2023-03-11T09:30:16.341Z,12.30
2023-03-11T09:32:49.466Z,14.30
2023-03-11T09:35:17.216Z,16.10
2023-03-11T09:37:48.911Z,38.00
2023-03-11T09:40:19.313Z,12.10
2023-03-11T09:42:59.313Z,16.80
2023-03-11T09:45:30.986Z,18.60
2023-03-11T09:48:18.323Z,11.70
2023-03-11T09:51:00.920Z,13.90
2023-03-11T09:53:31.796Z,10.60
2023-03-11T09:56:00.238Z,13.00
2023-03-11T09:58:40.563Z,17.00
2023-03-11T10:01:15.138Z,9.10
2023-03-11T10:03:45.367Z,10.10
2023-03-11T10:06:15.094Z,9.50
2023-03-11T10:08:54.671Z,14.30
2023-03-11T10:11:34.788Z,10.10
2023-03-11T10:14:10.020Z,9.80
2023-03-11T10:17:04.524Z,8.50
2023-03-11T10:19:44.790Z,10.30
2023-03-11T10:22:33.090Z,10.80
2023-03-11T10:25:00.886Z,7.90
2023-03-11T10:27:31.666Z,9.60
2023-03-11T10:30:22.858Z,9.60
2023-03-11T10:33:09.011Z,9.60
2023-03-11T10:35:46.389Z,8.60
2023-03-11T10:38:20.659Z,5.90
2023-03-11T10:40:51.421Z,10.90
2023-03-11T10:43:22.025Z,9.00
2023-03-11T10:45:51.358Z,11.80
2023-03-11T10:48:20.623Z,8.10
2023-03-11T10:50:54.645Z,9.00
2023-03-11T10:53:22.819Z,13.40
2023-03-11T10:55:53.199Z,6.90
2023-03-11T10:58:22.593Z,8.00
2023-03-11T11:01:05.046Z,10.10
2023-03-11T11:03:33.757Z,7.30
2023-03-11T11:06:07.085Z,9.10
2023-03-11T11:08:36.126Z,8.20
2023-03-11T11:11:04.780Z,7.60
2023-03-11T11:13:37.212Z,12.10
2023-03-11T11:16:21.985Z,8.50
2023-03-11T11:18:52.275Z,6.10
2023-03-11T11:21:34.681Z,9.10
2023-03-11T11:24:21.600Z,10.60
2023-03-11T11:27:08.592Z,8.30
2023-03-11T11:29:36.720Z,8.70
2023-03-11T11:32:17.619Z,7.90
2023-03-11T11:34:58.320Z,10.80
2023-03-11T11:37:31.863Z,9.60
2023-03-11T11:40:02.931Z,9.50
2023-03-11T11:42:31.472Z,9.90
2023-03-11T11:45:02.344Z,9.10
2023-03-11T11:47:34.063Z,9.80
2023-03-11T11:50:07.608Z,10.20
2023-03-11T11:52:43.107Z,10.20
2023-03-11T11:55:17.173Z,8.10
2023-03-11T11:57:52.335Z,9.40
2023-03-11T12:00:40.417Z,10.40
2023-03-11T12:03:08.111Z,6.20
2023-03-11T12:05:41.663Z,9.40
2023-03-11T12:08:18.620Z,16.60
2023-03-11T12:10:49.668Z,8.10
2023-03-11T12:13:24.159Z,7.60
2023-03-11T12:16:03.608Z,10.10
2023-03-11T12:18:37.849Z,11.00
2023-03-11T12:24:00.391Z,9.40
2023-03-11T12:26:33.875Z,10.80
2023-03-11T12:29:06.963Z,7.80
2023-03-11T12:31:38.982Z,7.90
2023-03-11T12:34:10.970Z,6.10
2023-03-11T12:36:44.563Z,8.30
2023-03-11T12:39:33.710Z,8.30
2023-03-11T12:42:11.643Z,6.80
2023-03-11T12:44:40.453Z,9.00
2023-03-11T12:47:08.075Z,7.50
2023-03-11T12:49:43.455Z,10.40
2023-03-11T12:52:11.776Z,8.20
2023-03-11T12:54:40.776Z,8.30
2023-03-11T12:57:18.219Z,8.80
2023-03-11T13:00:08.155Z,5.70
2023-03-11T13:02:49.237Z,5.30
2023-03-11T13:05:43.634Z,7.00
2023-03-11T13:08:15.879Z,6.30
2023-03-11T13:10:45.288Z,7.00
2023-03-11T13:13:22.293Z,5.80
2023-03-11T13:15:57.359Z,5.20
2023-03-11T13:18:26.622Z,13.30
2023-03-11T13:20:58.610Z,5.30
2023-03-11T13:23:28.186Z,7.50
2023-03-11T13:25:56.371Z,7.50
2023-03-11T13:28:31.971Z,7.90
2023-03-11T13:31:00.093Z,9.80
2023-03-11T13:33:32.403Z,5.00
2023-03-11T13:36:04.144Z,5.30
2023-03-11T13:38:42.257Z,6.00
2023-03-11T13:41:31.387Z,9.50
2023-03-11T13:44:04.509Z,9.10
2023-03-11T13:46:38.455Z,5.90
2023-03-11T13:49:14.969Z,5.90
2023-03-11T13:51:43.781Z,9.60
2023-03-11T13:54:27.032Z,9.60
2023-03-11T13:56:57.006Z,16.20
2023-03-11T13:59:28.687Z,8.70
2023-03-11T14:02:00.892Z,14.20
2023-03-11T14:04:49.266Z,5.90
2023-03-11T14:07:25.353Z,7.80
2023-03-11T14:10:09.130Z,7.40
2023-03-11T14:12:37.004Z,8.00
2023-03-11T14:15:16.708Z,7.40
2023-03-11T14:17:51.556Z,5.40
2023-03-11T14:20:23.758Z,5.30
2023-03-11T14:22:52.889Z,5.80
2023-03-11T14:25:23.273Z,8.70
2023-03-11T14:28:03.395Z,3.60
2023-03-11T14:30:32.670Z,5.40
2023-03-11T14:33:16.047Z,7.10
2023-03-11T14:35:51.470Z,5.70
2023-03-11T14:38:24.821Z,7.60
2023-03-11T14:40:55.382Z,3.80
2023-03-11T14:43:23.129Z,8.40
2023-03-11T14:45:52.440Z,4.90
2023-03-11T14:48:35.184Z,5.00
2023-03-11T14:51:04.120Z,7.80
2023-03-11T14:53:42.700Z,4.70
2023-03-11T14:56:16.270Z,5.50
2023-03-11T14:58:49.219Z,10.40
2023-03-11T15:01:21.622Z,7.80
2023-03-11T15:03:54.728Z,6.80
2023-03-11T15:06:27.951Z,8.70
2023-03-11T15:09:00.640Z,11.90
2023-03-11T15:11:28.601Z,11.40
2023-03-11T15:14:09.734Z,8.10
2023-03-11T15:16:37.629Z,6.30
2023-03-11T15:19:20.951Z,4.40
2023-03-11T15:21:49.980Z,4.40
2023-03-11T15:24:28.614Z,6.20
2023-03-11T15:26:59.644Z,8.60
2023-03-11T15:29:28.298Z,5.60
2023-03-11T15:32:00.251Z,5.20
2023-03-11T15:34:30.913Z,7.50
2023-03-11T15:37:01.468Z,22.80
2023-03-11T15:39:36.019Z,11.90
2023-03-11T15:42:06.961Z,24.40
2023-03-11T15:44:36.388Z,32.30
2023-03-11T15:47:13.345Z,6.50
2023-03-11T15:49:41.475Z,7.70
2023-03-11T15:52:09.432Z,7.70
2023-03-11T15:54:38.087Z,6.60
2023-03-11T15:57:07.125Z,7.00
2023-03-11T15:59:36.435Z,6.10
2023-03-11T16:02:05.158Z,13.20
2023-03-11T16:04:33.219Z,7.40
2023-03-11T16:07:07.777Z,15.30
2023-03-11T16:09:36.365Z,9.10
2023-03-11T16:12:12.935Z,15.60
2023-03-11T16:14:40.732Z,13.70
2023-03-11T16:17:10.842Z,11.80
2023-03-11T16:19:38.752Z,8.50
2023-03-11T16:22:13.152Z,9.60
2023-03-11T16:24:51.875Z,8.00
2023-03-11T16:27:26.180Z,8.70
2023-03-11T16:29:54.244Z,6.10
2023-03-11T16:32:22.601Z,9.00
2023-03-11T16:34:50.562Z,5.60
2023-03-11T16:37:21.117Z,4.40
2023-03-11T16:40:10.000Z,5.40
2023-03-11T16:42:39.133Z,5.00
2023-03-11T16:45:12.874Z,7.30
2023-03-11T16:47:46.783Z,5.10
2023-03-11T16:50:36.977Z,6.80
2023-03-11T16:53:05.776Z,10.50
2023-03-11T16:55:33.485Z,4.50
2023-03-11T16:58:01.224Z,8.50
2023-03-11T17:00:29.266Z,7.00
2023-03-11T17:02:57.214Z,5.40
2023-03-11T17:05:25.376Z,10.90
2023-03-11T17:07:54.425Z,6.50
2023-03-11T17:10:24.430Z,6.20
2023-03-11T17:12:54.950Z,5.20
2023-03-11T17:15:22.817Z,6.00
2023-03-11T17:18:01.927Z,9.50
2023-03-11T17:20:31.035Z,10.50
2023-03-11T17:22:58.885Z,6.10
2023-03-11T17:25:26.907Z,10.60
2023-03-11T17:27:55.346Z,12.60
2023-03-11T17:30:35.929Z,13.10
2023-03-11T17:33:04.783Z,14.70
2023-03-11T17:35:40.838Z,13.10
2023-03-11T17:38:09.155Z,16.30
2023-03-11T17:40:37.516Z,11.50
2023-03-11T17:43:05.900Z,9.20
2023-03-11T17:45:33.822Z,18.60
2023-03-11T17:48:04.796Z,9.40
2023-03-11T17:50:53.871Z,7.30
2023-03-11T17:53:21.955Z,21.40
2023-03-11T17:55:50.370Z,14.70
2023-03-11T17:58:18.126Z,12.80
2023-03-11T18:00:46.179Z,8.40
2023-03-11T18:03:15.798Z,16.70
2023-03-11T18:05:53.803Z,13.70
2023-03-11T18:08:21.701Z,12.50
2023-03-11T18:10:52.900Z,9.80
2023-03-11T18:13:20.878Z,11.60
2023-03-11T18:15:56.414Z,8.60
2023-03-11T18:18:25.145Z,7.60
2023-03-11T18:20:53.589Z,11.50
2023-03-11T18:23:21.469Z,15.50
2023-03-11T18:25:53.258Z,6.40
2023-03-11T18:28:23.614Z,10.30
2023-03-11T18:30:51.675Z,12.70
2023-03-11T18:33:24.423Z,17.40
2023-03-11T18:35:59.663Z,17.30
2023-03-11T18:38:32.069Z,25.00
2023-03-11T18:40:59.966Z,23.10
2023-03-11T18:43:28.156Z,18.90
2023-03-11T18:45:56.319Z,22.70
2023-03-11T18:48:24.165Z,21.40
2023-03-11T18:50:52.995Z,16.10
2023-03-11T18:53:25.356Z,14.70
2023-03-11T18:55:58.958Z,12.70
2023-03-11T18:58:27.336Z,18.10
2023-03-11T19:00:55.136Z,18.10
2023-03-11T19:03:22.823Z,14.80
2023-03-11T19:05:52.483Z,16.90
2023-03-11T19:08:20.368Z,34.50
2023-03-11T19:10:48.466Z,25.20
2023-03-11T19:13:19.537Z,12.90
2023-03-11T19:15:48.119Z,14.30
2023-03-11T19:18:16.299Z,16.20
2023-03-11T19:20:44.165Z,18.90
2023-03-11T19:23:12.447Z,12.60
2023-03-11T19:25:42.595Z,15.30
2023-03-11T19:28:17.929Z,13.40
2023-03-11T19:30:50.011Z,9.50
2023-03-11T19:33:18.240Z,15.90
2023-03-11T19:35:46.151Z,16.10
2023-03-11T19:38:15.466Z,10.20
2023-03-11T19:40:44.167Z,12.00
2023-03-11T19:43:13.827Z,13.90
2023-03-11T19:45:41.638Z,16.30
2023-03-11T19:48:13.157Z,14.70
2023-03-11T19:50:41.379Z,16.40
2023-03-11T19:53:09.126Z,17.60
2023-03-11T19:55:36.988Z,19.50
2023-03-11T19:58:05.042Z,12.50
2023-03-11T20:00:32.937Z,18.10
2023-03-11T20:03:02.396Z,14.00
2023-03-11T20:05:30.525Z,16.50
2023-03-11T20:07:58.577Z,18.30
2023-03-11T20:10:27.113Z,15.60
2023-03-11T20:13:02.148Z,20.20
2023-03-11T20:15:30.949Z,16.80
2023-03-11T20:18:00.984Z,20.10
2023-03-11T20:20:29.974Z,16.60
2023-03-11T20:22:58.662Z,16.90
2023-03-11T20:25:26.783Z,15.60
2023-03-11T20:27:54.604Z,13.40
2023-03-11T20:30:24.531Z,20.50
2023-03-11T20:32:52.869Z,13.60
2023-03-11T20:35:21.395Z,12.70
2023-03-11T20:37:55.558Z,15.80
2023-03-11T20:40:27.355Z,12.60
2023-03-11T20:42:55.312Z,18.50
2023-03-11T20:45:23.085Z,21.20
2023-03-11T20:47:53.705Z,20.40
2023-03-11T20:50:22.347Z,13.30
2023-03-11T20:52:50.496Z,13.40
2023-03-11T20:55:18.449Z,15.80
2023-03-11T20:57:46.766Z,20.10
2023-03-11T21:00:14.689Z,12.80
2023-03-11T21:02:47.251Z,16.10
2023-03-11T21:05:15.292Z,10.70
2023-03-11T21:07:43.172Z,17.70
2023-03-11T21:10:12.095Z,17.10
2023-03-11T21:12:40.293Z,16.40
2023-03-11T21:15:09.745Z,14.20
2023-03-11T21:17:37.924Z,12.40
2023-03-11T21:20:06.382Z,11.70
2023-03-11T21:22:34.335Z,13.10
2023-03-11T21:25:03.260Z,15.40
2023-03-11T21:27:31.380Z,10.00
2023-03-11T21:29:59.603Z,13.20
2023-03-11T21:32:28.119Z,14.00
2023-03-11T21:34:57.838Z,14.60
2023-03-11T21:37:26.398Z,12.70
2023-03-11T21:40:01.778Z,11.70
2023-03-11T21:42:30.174Z,9.70
2023-03-11T21:44:58.648Z,12.80
2023-03-11T21:47:27.243Z,15.40
2023-03-11T21:49:55.070Z,16.10
2023-03-11T21:52:23.030Z,17.70
2023-03-11T21:54:51.036Z,15.30
2023-03-11T21:57:18.712Z,10.60
2023-03-11T21:59:47.162Z,12.00
2023-03-11T22:02:16.236Z,12.90
2023-03-11T22:04:44.976Z,17.90
2023-03-11T22:07:13.146Z,12.80
2023-03-11T22:09:41.050Z,19.50
2023-03-11T22:12:08.889Z,11.50
2023-03-11T22:14:36.599Z,17.60
2023-03-11T22:17:04.722Z,12.00
2023-03-11T22:19:32.521Z,13.90
2023-03-11T22:22:00.313Z,13.70
2023-03-11T22:24:28.206Z,12.50
2023-03-11T22:26:56.093Z,11.20
2023-03-11T22:29:23.838Z,19.30
2023-03-11T22:31:51.859Z,13.80
2023-03-11T22:34:19.664Z,11.60
2023-03-11T22:36:47.580Z,11.30
2023-03-11T22:39:24.653Z,14.20
2023-03-11T22:41:56.386Z,12.60
2023-03-11T22:44:24.159Z,16.90
2023-03-11T22:46:51.928Z,7.90
2023-03-11T22:49:19.561Z,13.70
2023-03-11T22:51:47.313Z,13.00
2023-03-11T22:54:15.103Z,16.20
2023-03-11T22:56:43.138Z,10.30
2023-03-11T22:59:10.906Z,13.40
2023-03-11T23:01:38.515Z,13.50
2023-03-11T23:04:06.667Z,13.50
2023-03-11T23:06:34.389Z,14.40
2023-03-11T23:09:03.642Z,13.80
2023-03-11T23:11:31.421Z,15.30
2023-03-11T23:13:59.916Z,16.00
2023-03-11T23:16:28.041Z,12.50
2023-03-11T23:18:56.282Z,15.30
2023-03-11T23:21:30.117Z,14.00
2023-03-11T23:24:00.818Z,16.70
2023-03-11T23:26:29.904Z,13.90
2023-03-11T23:28:58.786Z,12.70
2023-03-11T23:31:29.117Z,15.70
2023-03-11T23:33:58.476Z,20.70
2023-03-11T23:36:31.086Z,18.40
2023-03-11T23:38:58.879Z,17.60
2023-03-11T23:41:53.134Z,23.00
2023-03-11T23:44:21.812Z,15.40
2023-03-11T23:46:49.891Z,13.10
2023-03-11T23:49:17.842Z,15.60
2023-03-11T23:51:45.549Z,13.20
2023-03-11T23:54:13.747Z,15.60
2023-03-11T23:56:43.716Z,11.80
2023-03-11T23:59:12.609Z,15.40
